Impacts METAR Board
IDs:

KSEA - Seattle-Tacoma Intl, WA, US

Updated at: 2200 UTC 21 May 2022
Potential Impact None Slight Moderate High
Time 21/10Z 21/11Z 21/12Z 21/13Z 21/14Z 21/15Z 21/16Z 21/17Z 21/18Z 21/19Z 21/20Z 21/21Z 21/22Z
Temp48 47 46 44 47 50 53 56 57 58 60 63 65
Dewpt41 41 40 40 41 42 43 45 44 46 45 44 41
Altim30.20 30.19 30.20 30.21 30.22 30.23 30.23 30.22 30.22 30.22 30.22 30.20 30.19
VIS10 10 10 10 10 10 10 10 10 10 10 10 10
CIG-- -- -- -- -- -- -- -- -- -- -- -- --
CoverCLRCLRFEWFEWFEWFEWFEWFEWSCTSCTFEWFEWFEW
FltCatVFRVFRVFRVFRVFRVFRVFRVFRVFRVFRVFRVFRVFR
WX--------------------------
WDir6090100140130700350031029030010
WSpd5 5 3 3 4 4 4 4 0 7 9 10 9
WGst-- -- -- -- -- -- -- -- -- 16 16 -- 16
Raw hourly METARs
KSEA 210953Z 06005KT 10SM CLR 09/05 A3020 RMK AO2 SLP232 T00890050
KSEA 211053Z 09005KT 10SM CLR 08/05 A3019 RMK AO2 SLP231 T00830050
KSEA 211153Z 10003KT 10SM FEW050 08/04 A3020 RMK AO2 SLP232 T00780044 10117 20078 55002
KSEA 211253Z 14003KT 10SM FEW050 07/04 A3021 RMK AO2 SLP236 T00670044
KSEA 211353Z 13004KT 10SM FEW050 08/05 A3022 RMK AO2 SLP239 T00830050
KSEA 211453Z 07004KT 10SM FEW050 10/06 A3023 RMK AO2 SLP243 T01000056 51010
KSEA 211553Z VRB04KT 10SM FEW050 12/06 A3023 RMK AO2 SLP243 T01170061
KSEA 211653Z 35004KT 10SM FEW040 13/07 A3022 RMK AO2 SLP241 T01330072
KSEA 211753Z 00000KT 10SM SCT030 14/07 A3022 RMK AO2 SLP241 T01390067 10139 20067 57002
KSEA 211853Z 31007G16KT 10SM SCT030 14/08 A3022 RMK AO2 SLP241 T01440078
KSEA 211953Z 29009G16KT 10SM FEW030 16/07 A3022 RMK AO2 SLP238 T01560072
KSEA 212053Z 30010KT 10SM FEW030 17/07 A3020 RMK AO2 SLP232 T01720067 58009
KSEA 212153Z 01009G16KT 10SM FEW035 18/05 A3019 RMK AO2 SLP229 T01830050



Page loaded:  22:56 UTC  |   03:56 PM Pacific  |   04:56 PM Mountain  |   05:56 PM Central  |   06:56 PM Eastern

 

ADVISORIES

FORECASTS

FORECASTS

OBSERVATIONS

USER TOOLS

ABOUT US